Time;durP1;ratioP1;P1;durP2;ratioP2;P2;SDS_P1;SDS_P2;PMS_P1;PMS_P2;Temp;Humidity;BMP_temperature;BMP_pressure;BME280_temperature;BME280_humidity;BME280_pressure;Samples;Min_cycle;Max_cycle;Signal;HPM_P1;HPM_P2
2023/12/02 00:00:38;;;;;;;4.82;4.53;;;;;;;;;;5082451;28;20451;-82
2023/12/02 00:03:04;;;;;;;4.53;4.22;;;;;;;;;;5083079;28;20380;-82
2023/12/02 00:05:30;;;;;;;4.60;4.28;;;;;;;;;;5083030;28;20437;-82
2023/12/02 00:07:56;;;;;;;4.60;4.30;;;;;;;;;;5067261;28;20867;-82
2023/12/02 00:10:22;;;;;;;4.18;3.88;;;;;;;;;;5062826;28;20453;-82
2023/12/02 00:12:48;;;;;;;4.00;3.70;;;;;;;;;;5062220;28;20431;-81
2023/12/02 00:15:14;;;;;;;4.43;4.13;;;;;;;;;;5062197;28;20378;-82
2023/12/02 00:17:40;;;;;;;4.28;3.97;;;;;;;;;;5062407;28;20390;-82
2023/12/02 00:20:06;;;;;;;4.43;4.13;;;;;;;;;;5062080;28;20893;-82
2023/12/02 00:22:32;;;;;;;4.32;4.03;;;;;;;;;;5062653;28;20384;-82
2023/12/02 00:24:58;;;;;;;4.53;4.23;;;;;;;;;;5076265;28;20391;-82
2023/12/02 00:27:24;;;;;;;4.38;4.07;;;;;;;;;;5081915;28;20509;-82
2023/12/02 00:29:50;;;;;;;4.65;4.35;;;;;;;;;;5082146;28;20390;-82
2023/12/02 00:32:17;;;;;;;4.55;4.25;;;;;;;;;;5082606;28;20400;-82
2023/12/02 00:34:43;;;;;;;4.32;4.03;;;;;;;;;;5082721;28;20401;-82
2023/12/02 00:37:09;;;;;;;4.73;4.33;;;;;;;;;;5085663;28;20442;-82
2023/12/02 00:39:35;;;;;;;4.40;4.03;;;;;;;;;;5103100;28;20416;-82
2023/12/02 00:42:01;;;;;;;4.32;4.03;;;;;;;;;;5103065;28;20446;-82
2023/12/02 00:44:27;;;;;;;4.10;3.80;;;;;;;;;;5102809;28;20377;-82
2023/12/02 00:46:53;;;;;;;4.25;3.95;;;;;;;;;;5103215;28;20406;-82
2023/12/02 00:49:19;;;;;;;4.10;3.80;;;;;;;;;;5103801;28;20382;-82
2023/12/02 00:51:44;;;;;;;4.05;3.80;;;;;;;;;;5103738;28;20451;-82
2023/12/02 00:54:10;;;;;;;4.47;4.18;;;;;;;;;;5103330;28;20765;-82
2023/12/02 00:56:36;;;;;;;4.32;4.03;;;;;;;;;;5103371;28;20389;-82
2023/12/02 00:59:02;;;;;;;4.50;4.20;;;;;;;;;;5103553;28;20374;-82
2023/12/02 01:01:28;;;;;;;4.63;4.32;;;;;;;;;;5102734;28;20895;-82
2023/12/02 01:03:54;;;;;;;4.18;3.88;;;;;;;;;;5101086;28;20382;-82
2023/12/02 01:06:20;;;;;;;4.50;4.20;;;;;;;;;;5087856;28;20497;-82
2023/12/02 01:08:46;;;;;;;4.60;4.30;;;;;;;;;;5074829;28;20422;-82
2023/12/02 01:11:12;;;;;;;4.40;4.10;;;;;;;;;;5081982;28;20834;-82
2023/12/02 01:13:38;;;;;;;4.93;4.53;;;;;;;;;;5081219;28;20437;-82
2023/12/02 01:16:04;;;;;;;4.28;3.97;;;;;;;;;;5082261;28;20376;-82
2023/12/02 01:18:30;;;;;;;3.75;3.45;;;;;;;;;;5081643;28;20419;-82
2023/12/02 01:20:56;;;;;;;3.50;3.30;;;;;;;;;;5082462;28;20478;-82
2023/12/02 01:23:22;;;;;;;3.45;3.25;;;;;;;;;;5082246;28;20458;-82
2023/12/02 01:25:48;;;;;;;3.20;3.00;;;;;;;;;;5081941;28;20868;-82
2023/12/02 01:28:14;;;;;;;3.60;3.30;;;;;;;;;;5081859;28;20391;-82
2023/12/02 01:30:40;;;;;;;3.42;3.20;;;;;;;;;;5082195;28;20741;-82
2023/12/02 01:33:06;;;;;;;3.22;3.03;;;;;;;;;;5082347;28;20403;-82
2023/12/02 01:35:32;;;;;;;3.13;2.92;;;;;;;;;;5082399;28;20379;-82
2023/12/02 01:37:58;;;;;;;3.10;2.90;;;;;;;;;;5082237;28;20417;-82
2023/12/02 01:40:24;;;;;;;3.45;3.17;;;;;;;;;;5100778;28;20849;-82
2023/12/02 01:42:50;;;;;;;3.25;3.05;;;;;;;;;;5102376;28;20378;-82
2023/12/02 01:45:16;;;;;;;3.22;3.03;;;;;;;;;;5102185;28;20389;-82
2023/12/02 01:47:43;;;;;;;3.33;3.13;;;;;;;;;;5087369;28;20400;-82
2023/12/02 01:50:09;;;;;;;3.30;3.10;;;;;;;;;;5081012;28;20411;-82
2023/12/02 01:52:35;;;;;;;3.38;2.90;;;;;;;;;;5080684;28;20410;-82
2023/12/02 01:55:02;;;;;;;3.60;3.30;;;;;;;;;;5080819;28;20376;-81
2023/12/02 01:57:28;;;;;;;3.22;3.03;;;;;;;;;;5081027;28;20471;-82
2023/12/02 01:59:55;;;;;;;3.05;2.85;;;;;;;;;;5080851;28;20493;-82
2023/12/02 02:02:21;;;;;;;3.10;2.90;;;;;;;;;;5080529;28;20387;-82
2023/12/02 02:04:48;;;;;;;3.13;2.90;;;;;;;;;;5081225;28;20414;-82
2023/12/02 02:07:14;;;;;;;3.33;3.13;;;;;;;;;;5081908;28;20417;-82
2023/12/02 02:09:49;;;;;;;3.22;3.03;;;;;;;;;;5080922;28;20428;-82
2023/12/02 02:12:15;;;;;;;3.30;3.10;;;;;;;;;;5077652;28;20400;-82
2023/12/02 02:14:41;;;;;;;3.30;3.10;;;;;;;;;;5080775;28;20387;-82
2023/12/02 02:17:07;;;;;;;3.03;2.83;;;;;;;;;;5084877;28;20529;-82
2023/12/02 02:19:33;;;;;;;3.03;2.83;;;;;;;;;;5084019;28;20382;-82
2023/12/02 02:21:59;;;;;;;3.20;3.00;;;;;;;;;;5084122;28;20383;-82
2023/12/02 02:24:25;;;;;;;2.90;2.70;;;;;;;;;;5083985;28;20383;-82
2023/12/02 02:26:51;;;;;;;2.67;2.47;;;;;;;;;;5084066;28;20376;-82
2023/12/02 02:29:17;;;;;;;3.15;2.95;;;;;;;;;;5083946;28;20726;-82
2023/12/02 02:31:43;;;;;;;2.60;2.40;;;;;;;;;;5083734;28;20406;-82
2023/12/02 02:34:09;;;;;;;2.75;2.55;;;;;;;;;;5084441;28;20415;-82
2023/12/02 02:36:35;;;;;;;2.92;2.72;;;;;;;;;;5084192;28;20402;-83
2023/12/02 02:39:01;;;;;;;2.75;2.55;;;;;;;;;;5084330;28;20395;-82
2023/12/02 02:41:27;;;;;;;2.88;2.67;;;;;;;;;;5084524;28;20829;-82
2023/12/02 02:43:54;;;;;;;2.40;2.30;;;;;;;;;;5084189;28;20382;-82
2023/12/02 02:46:20;;;;;;;2.58;2.38;;;;;;;;;;5084182;28;20769;-82
2023/12/02 02:48:46;;;;;;;2.55;2.35;;;;;;;;;;5084705;28;20737;-82
2023/12/02 02:51:12;;;;;;;2.50;2.30;;;;;;;;;;5084574;28;20383;-82
2023/12/02 02:53:38;;;;;;;2.45;2.30;;;;;;;;;;5085021;28;20426;-82
2023/12/02 02:56:04;;;;;;;2.38;2.20;;;;;;;;;;5084818;28;20383;-82
2023/12/02 02:58:30;;;;;;;2.08;1.98;;;;;;;;;;5084755;28;20398;-82
2023/12/02 03:00:56;;;;;;;2.63;2.42;;;;;;;;;;5085701;28;20380;-82
2023/12/02 03:03:22;;;;;;;2.67;2.47;;;;;;;;;;5084592;28;20382;-82
2023/12/02 03:05:48;;;;;;;2.65;2.45;;;;;;;;;;5084971;28;20395;-82
2023/12/02 03:08:14;;;;;;;2.90;2.70;;;;;;;;;;5085223;28;20384;-82
2023/12/02 03:10:41;;;;;;;2.60;2.40;;;;;;;;;;5085028;28;20391;-82
2023/12/02 03:13:07;;;;;;;2.20;2.00;;;;;;;;;;5084075;28;20461;-82
2023/12/02 03:15:33;;;;;;;1.67;1.58;;;;;;;;;;5084248;28;20376;-82
2023/12/02 03:17:58;;;;;;;1.90;1.80;;;;;;;;;;5083806;28;20371;-82
2023/12/02 03:20:24;;;;;;;1.65;1.55;;;;;;;;;;5085132;28;20387;-82
2023/12/02 03:22:50;;;;;;;1.50;1.40;;;;;;;;;;5084285;28;20978;-82
2023/12/02 03:25:17;;;;;;;1.70;1.60;;;;;;;;;;5083866;28;20414;-82
2023/12/02 03:27:43;;;;;;;1.70;1.60;;;;;;;;;;5083768;28;20462;-81
2023/12/02 03:30:09;;;;;;;1.30;1.17;;;;;;;;;;5084427;28;20410;-82
2023/12/02 03:32:38;;;;;;;1.33;1.23;;;;;;;;;;5084210;28;20407;-81
2023/12/02 03:35:05;;;;;;;1.33;1.23;;;;;;;;;;5083882;28;20399;-82
2023/12/02 03:37:31;;;;;;;1.70;1.60;;;;;;;;;;5083205;28;20411;-82
2023/12/02 03:39:57;;;;;;;1.58;1.48;;;;;;;;;;5084852;28;20415;-81
2023/12/02 03:42:26;;;;;;;1.55;1.45;;;;;;;;;;5104215;28;20374;-82
2023/12/02 03:44:51;;;;;;;1.38;1.23;;;;;;;;;;5103282;28;20378;-81
2023/12/02 03:47:17;;;;;;;1.50;1.40;;;;;;;;;;5087738;28;20479;-81
2023/12/02 03:49:43;;;;;;;1.52;1.42;;;;;;;;;;5083407;28;20459;-83
2023/12/02 03:52:09;;;;;;;1.33;1.23;;;;;;;;;;5084225;28;20893;-84
2023/12/02 03:54:36;;;;;;;1.15;1.08;;;;;;;;;;5083444;28;20481;-83
2023/12/02 03:57:02;;;;;;;1.67;1.35;;;;;;;;;;5083441;28;20379;-84
2023/12/02 03:59:28;;;;;;;1.20;1.10;;;;;;;;;;5084229;28;20421;-84
2023/12/02 04:01:54;;;;;;;1.27;1.17;;;;;;;;;;5083551;28;20392;-81
2023/12/02 04:04:20;;;;;;;1.33;1.23;;;;;;;;;;5083941;28;20876;-83
2023/12/02 04:06:46;;;;;;;1.65;1.30;;;;;;;;;;5083619;28;20401;-83
2023/12/02 04:09:12;;;;;;;1.20;1.10;;;;;;;;;;5083035;28;20384;-83
2023/12/02 04:11:38;;;;;;;1.42;1.33;;;;;;;;;;5082735;28;20423;-81
2023/12/02 04:14:05;;;;;;;1.70;1.60;;;;;;;;;;5082716;28;20461;-81
2023/12/02 04:16:30;;;;;;;1.13;1.08;;;;;;;;;;5082345;28;20379;-81
2023/12/02 04:18:56;;;;;;;1.48;1.38;;;;;;;;;;5082224;28;20409;-81
2023/12/02 04:21:23;;;;;;;1.43;1.33;;;;;;;;;;5079138;28;20383;-81
2023/12/02 04:23:49;;;;;;;1.35;1.25;;;;;;;;;;5081576;28;20433;-83
2023/12/02 04:26:15;;;;;;;1.40;1.30;;;;;;;;;;5082161;28;20444;-81
2023/12/02 04:28:42;;;;;;;1.50;1.40;;;;;;;;;;5082576;28;20534;-81
2023/12/02 04:31:07;;;;;;;1.50;1.30;;;;;;;;;;5082776;28;20384;-81
2023/12/02 04:33:33;;;;;;;1.45;1.35;;;;;;;;;;5083286;28;20414;-81
2023/12/02 04:35:59;;;;;;;1.50;1.40;;;;;;;;;;5083020;28;20382;-81
2023/12/02 04:38:25;;;;;;;1.60;1.50;;;;;;;;;;5081997;28;20376;-81
2023/12/02 04:40:51;;;;;;;1.70;1.60;;;;;;;;;;5082059;28;20853;-81
2023/12/02 04:43:17;;;;;;;1.70;1.60;;;;;;;;;;5099781;28;20382;-81
2023/12/02 04:45:43;;;;;;;1.90;1.80;;;;;;;;;;5102666;28;20397;-81
2023/12/02 04:48:12;;;;;;;2.40;2.20;;;;;;;;;;5101912;28;20435;-81
2023/12/02 04:50:38;;;;;;;2.40;2.20;;;;;;;;;;5101041;28;20920;-81
2023/12/02 04:53:04;;;;;;;2.45;2.25;;;;;;;;;;5101454;28;20409;-83
2023/12/02 04:55:30;;;;;;;2.40;2.20;;;;;;;;;;5101277;28;20370;-83
2023/12/02 04:57:56;;;;;;;2.30;2.10;;;;;;;;;;5101264;28;20469;-83
2023/12/02 05:00:22;;;;;;;2.30;2.10;;;;;;;;;;5101294;28;20379;-83
2023/12/02 05:02:48;;;;;;;2.13;2.03;;;;;;;;;;5101553;28;20451;-83
2023/12/02 05:05:14;;;;;;;2.60;2.40;;;;;;;;;;5101322;28;20404;-83
2023/12/02 05:07:40;;;;;;;2.28;2.10;;;;;;;;;;5101139;28;20378;-83
2023/12/02 05:10:07;;;;;;;3.00;2.80;;;;;;;;;;5100947;28;20385;-83
2023/12/02 05:12:33;;;;;;;2.75;2.55;;;;;;;;;;5101141;28;20973;-84
2023/12/02 05:14:59;;;;;;;3.55;3.25;;;;;;;;;;5101533;28;20374;-83
2023/12/02 05:17:25;;;;;;;3.93;3.53;;;;;;;;;;5101351;28;20388;-84
2023/12/02 05:19:51;;;;;;;3.47;3.17;;;;;;;;;;5101391;28;20880;-83
2023/12/02 05:22:16;;;;;;;3.30;3.00;;;;;;;;;;5101642;28;20382;-84
2023/12/02 05:24:42;;;;;;;3.80;3.50;;;;;;;;;;5102293;28;20378;-83
2023/12/02 05:27:08;;;;;;;3.38;3.17;;;;;;;;;;5101230;28;20428;-84
2023/12/02 05:29:34;;;;;;;3.40;3.10;;;;;;;;;;5102336;28;20374;-83
2023/12/02 05:32:01;;;;;;;3.10;2.90;;;;;;;;;;5101164;28;20414;-83
2023/12/02 05:34:27;;;;;;;3.33;3.05;;;;;;;;;;5101851;28;20374;-84
2023/12/02 05:36:53;;;;;;;2.83;2.63;;;;;;;;;;5091367;28;20414;-83
2023/12/02 05:39:19;;;;;;;3.38;3.08;;;;;;;;;;5081362;28;20406;-83
2023/12/02 05:41:47;;;;;;;3.38;3.08;;;;;;;;;;5081289;28;20387;-83
2023/12/02 05:44:13;;;;;;;2.90;2.70;;;;;;;;;;5081506;28;20407;-83
2023/12/02 05:46:39;;;;;;;3.10;2.90;;;;;;;;;;5081333;28;20415;-83
2023/12/02 05:49:05;;;;;;;3.05;2.85;;;;;;;;;;5081757;28;20390;-83
2023/12/02 05:51:31;;;;;;;3.38;3.08;;;;;;;;;;5061662;28;20390;-84
2023/12/02 05:53:58;;;;;;;3.37;3.07;;;;;;;;;;5081280;28;20392;-83
2023/12/02 05:56:24;;;;;;;3.47;3.17;;;;;;;;;;5081547;28;20461;-83
2023/12/02 05:58:50;;;;;;;3.37;3.07;;;;;;;;;;5081854;28;20870;-83
2023/12/02 06:01:22;;;;;;;3.30;3.00;;;;;;;;;;5081227;28;20380;-83
2023/12/02 06:03:49;;;;;;;3.55;3.25;;;;;;;;;;5081799;28;20861;-84
2023/12/02 06:06:15;;;;;;;3.70;3.40;;;;;;;;;;5081257;28;20865;-83
2023/12/02 06:08:41;;;;;;;3.90;3.60;;;;;;;;;;5081249;28;20746;-83
2023/12/02 06:11:07;;;;;;;4.53;4.13;;;;;;;;;;5081043;28;20391;-82
2023/12/02 06:13:33;;;;;;;4.10;3.80;;;;;;;;;;5082081;28;20876;-81
2023/12/02 06:15:59;;;;;;;5.20;4.57;;;;;;;;;;5081080;28;20877;-81
2023/12/02 06:18:25;;;;;;;4.22;3.90;;;;;;;;;;5081719;28;20433;-82
2023/12/02 06:20:51;;;;;;;4.30;4.00;;;;;;;;;;5066714;28;20377;-82
2023/12/02 06:23:17;;;;;;;4.55;4.15;;;;;;;;;;5043745;28;20393;-81
2023/12/02 06:25:43;;;;;;;4.60;4.20;;;;;;;;;;5061417;28;20393;-83
2023/12/02 06:28:10;;;;;;;4.60;4.20;;;;;;;;;;5061601;28;20393;-83
2023/12/02 06:30:36;;;;;;;4.97;4.57;;;;;;;;;;5061228;28;20389;-82
2023/12/02 06:33:02;;;;;;;4.90;4.43;;;;;;;;;;5061230;28;20572;-81
2023/12/02 06:35:28;;;;;;;4.65;4.25;;;;;;;;;;5062217;28;20409;-83
2023/12/02 06:37:53;;;;;;;4.50;4.10;;;;;;;;;;5061570;28;20409;-83
2023/12/02 06:40:19;;;;;;;4.60;4.20;;;;;;;;;;5061769;28;20723;-83
2023/12/02 06:42:45;;;;;;;4.57;4.20;;;;;;;;;;5064805;28;20386;-80
2023/12/02 06:45:12;;;;;;;4.57;4.18;;;;;;;;;;5081544;28;20388;-83
2023/12/02 06:47:38;;;;;;;5.07;4.68;;;;;;;;;;5081912;28;20412;-83
2023/12/02 06:50:04;;;;;;;4.57;4.18;;;;;;;;;;5081750;28;20384;-83
2023/12/02 06:52:30;;;;;;;4.80;4.40;;;;;;;;;;5080858;28;20897;-83
2023/12/02 06:54:56;;;;;;;5.28;4.80;;;;;;;;;;5081964;28;20811;-83
2023/12/02 06:57:24;;;;;;;4.97;4.57;;;;;;;;;;5081032;28;20380;-83
2023/12/02 06:59:51;;;;;;;4.85;4.45;;;;;;;;;;5081083;28;20403;-83
2023/12/02 07:02:17;;;;;;;4.93;4.53;;;;;;;;;;5082749;28;20389;-83
2023/12/02 07:04:45;;;;;;;5.00;4.60;;;;;;;;;;5084832;28;20783;-83
2023/12/02 07:07:12;;;;;;;4.67;4.27;;;;;;;;;;5076630;28;20509;-83
2023/12/02 07:09:38;;;;;;;5.22;4.72;;;;;;;;;;5082427;28;20384;-83
2023/12/02 07:12:04;;;;;;;5.05;4.65;;;;;;;;;;5084361;28;21003;-83
2023/12/02 07:14:30;;;;;;;5.45;5.05;;;;;;;;;;5084703;28;20376;-83
2023/12/02 07:16:56;;;;;;;5.80;5.30;;;;;;;;;;5084445;28;20403;-83
2023/12/02 07:19:22;;;;;;;5.97;5.38;;;;;;;;;;5084061;28;20737;-83
2023/12/02 07:21:48;;;;;;;5.43;4.97;;;;;;;;;;5083653;28;20448;-83
2023/12/02 07:24:14;;;;;;;6.03;5.53;;;;;;;;;;5066151;28;20388;-83
2023/12/02 07:26:40;;;;;;;5.50;5.00;;;;;;;;;;5083387;28;20388;-83
2023/12/02 07:29:06;;;;;;;5.00;4.60;;;;;;;;;;5084156;28;20383;-83
2023/12/02 07:31:32;;;;;;;5.38;4.97;;;;;;;;;;5084066;28;20387;-83
2023/12/02 07:33:58;;;;;;;5.68;5.18;;;;;;;;;;5084233;28;20375;-83
2023/12/02 07:36:24;;;;;;;6.55;5.95;;;;;;;;;;5083608;28;20379;-83
2023/12/02 07:38:50;;;;;;;5.70;5.20;;;;;;;;;;5083983;28;20765;-83
2023/12/02 07:41:16;;;;;;;5.60;5.20;;;;;;;;;;5082542;28;20410;-84
2023/12/02 07:43:42;;;;;;;5.78;5.28;;;;;;;;;;5082313;28;20392;-83
2023/12/02 07:46:08;;;;;;;6.22;5.72;;;;;;;;;;5082963;28;20415;-83
2023/12/02 07:48:34;;;;;;;5.93;5.47;;;;;;;;;;5082944;28;20380;-84
2023/12/02 07:51:03;;;;;;;5.35;4.85;;;;;;;;;;5082362;28;20467;-83
2023/12/02 07:53:29;;;;;;;5.53;5.05;;;;;;;;;;5081825;28;20476;-83
2023/12/02 07:55:55;;;;;;;5.60;5.10;;;;;;;;;;5081733;28;20388;-84
2023/12/02 07:58:21;;;;;;;5.85;5.35;;;;;;;;;;5080739;28;20391;-83
2023/12/02 08:00:47;;;;;;;6.07;5.57;;;;;;;;;;5082169;28;20849;-83
2023/12/02 08:03:13;;;;;;;6.10;5.60;;;;;;;;;;5081630;28;20387;-84
2023/12/02 08:05:39;;;;;;;6.22;5.72;;;;;;;;;;5063317;28;20391;-83
2023/12/02 08:08:05;;;;;;;7.88;7.22;;;;;;;;;;5080993;28;20978;-84
2023/12/02 08:10:30;;;;;;;8.20;7.50;;;;;;;;;;5081849;28;20378;-84
2023/12/02 08:12:56;;;;;;;7.13;6.53;;;;;;;;;;5078203;28;20434;-84
2023/12/02 08:15:23;;;;;;;6.70;6.20;;;;;;;;;;5081799;28;20383;-84
2023/12/02 08:17:49;;;;;;;6.85;6.25;;;;;;;;;;5081662;28;20398;-83
2023/12/02 08:20:15;;;;;;;5.83;5.33;;;;;;;;;;5081501;28;20392;-84
2023/12/02 08:22:41;;;;;;;6.55;6.05;;;;;;;;;;5081489;28;20387;-84
2023/12/02 08:25:08;;;;;;;9.97;9.00;;;;;;;;;;5081736;28;20903;-84
2023/12/02 08:27:33;;;;;;;7.95;7.25;;;;;;;;;;5081223;28;20391;-84
2023/12/02 08:30:00;;;;;;;6.85;6.10;;;;;;;;;;5081487;28;20399;-84
2023/12/02 08:32:26;;;;;;;6.35;5.85;;;;;;;;;;5081024;28;20430;-84
2023/12/02 08:34:52;;;;;;;7.07;6.47;;;;;;;;;;5081761;28;20424;-84
2023/12/02 08:37:18;;;;;;;5.65;5.20;;;;;;;;;;5081505;28;20459;-83
2023/12/02 08:39:44;;;;;;;5.40;4.90;;;;;;;;;;5081159;28;20382;-83
2023/12/02 08:42:10;;;;;;;4.72;4.32;;;;;;;;;;5081609;28;20407;-83
2023/12/02 08:44:38;;;;;;;4.45;4.05;;;;;;;;;;5080664;28;20415;-83
2023/12/02 08:47:06;;;;;;;4.82;4.32;;;;;;;;;;5072933;28;20409;-83
2023/12/02 08:49:32;;;;;;;4.30;3.90;;;;;;;;;;5087072;28;20380;-83
2023/12/02 08:51:58;;;;;;;4.10;3.80;;;;;;;;;;5080725;28;20466;-83
2023/12/02 08:54:24;;;;;;;3.43;3.13;;;;;;;;;;5081297;28;20551;-84
2023/12/02 08:56:50;;;;;;;3.30;3.10;;;;;;;;;;5081418;28;20434;-84
2023/12/02 08:59:16;;;;;;;3.47;2.97;;;;;;;;;;5081365;28;20435;-84
2023/12/02 09:01:42;;;;;;;3.50;3.20;;;;;;;;;;5062886;28;20455;-84
2023/12/02 09:04:08;;;;;;;3.33;3.05;;;;;;;;;;5080850;28;20781;-84
2023/12/02 09:06:34;;;;;;;3.00;2.70;;;;;;;;;;5063182;28;20380;-83
2023/12/02 09:09:00;;;;;;;2.95;2.75;;;;;;;;;;5080878;28;20375;-84
2023/12/02 09:11:26;;;;;;;3.10;2.78;;;;;;;;;;5080324;28;20464;-81
2023/12/02 09:13:52;;;;;;;3.00;2.42;;;;;;;;;;5080542;28;20396;-84
2023/12/02 09:16:22;;;;;;;2.88;2.67;;;;;;;;;;5079648;28;20378;-83
2023/12/02 09:18:49;;;;;;;2.83;2.63;;;;;;;;;;5078979;28;20448;-83
2023/12/02 09:21:21;;;;;;;2.45;2.25;;;;;;;;;;5080955;28;20379;-84
2023/12/02 09:23:47;;;;;;;2.75;2.55;;;;;;;;;;5080153;28;20485;-84
2023/12/02 09:26:26;;;;;;;2.88;2.67;;;;;;;;;;5079812;28;20388;-84
2023/12/02 09:28:54;;;;;;;3.13;2.92;;;;;;;;;;5080374;28;20452;-84
2023/12/02 09:31:20;;;;;;;3.28;2.80;;;;;;;;;;5080545;28;20400;-84
2023/12/02 09:33:49;;;;;;;3.28;2.97;;;;;;;;;;5080886;28;20412;-84
2023/12/02 09:36:44;;;;;;;1.95;1.85;;;;;;;;;;5080763;28;20423;-84
2023/12/02 09:39:11;;;;;;;2.67;2.47;;;;;;;;;;5059882;28;21024;-84
2023/12/02 09:41:51;;;;;;;2.40;2.20;;;;;;;;;;5080271;28;20379;-84
2023/12/02 09:44:34;;;;;;;2.30;2.10;;;;;;;;;;5080218;28;20411;-84
2023/12/02 09:47:17;;;;;;;3.20;2.47;;;;;;;;;;5081120;28;20815;-83
2023/12/02 09:49:52;;;;;;;2.40;2.20;;;;;;;;;;5080713;28;20462;-84
2023/12/02 09:52:37;;;;;;;2.60;2.40;;;;;;;;;;5080241;28;20547;-84
2023/12/02 09:55:20;;;;;;;2.78;2.50;;;;;;;;;;5080709;28;20364;-84
2023/12/02 09:57:48;;;;;;;2.20;2.10;;;;;;;;;;5080525;28;20407;-84
2023/12/02 10:00:25;;;;;;;2.45;2.30;;;;;;;;;;5080114;28;20417;-85
2023/12/02 10:03:03;;;;;;;2.00;1.90;;;;;;;;;;5080207;28;20428;-84
2023/12/02 10:05:32;;;;;;;2.20;2.00;;;;;;;;;;5073389;28;20415;-84
2023/12/02 10:08:09;;;;;;;1.80;1.70;;;;;;;;;;5042508;28;20397;-84
2023/12/02 10:10:41;;;;;;;2.10;2.00;;;;;;;;;;5059591;28;20385;-83
2023/12/02 10:13:30;;;;;;;2.10;2.00;;;;;;;;;;5060185;28;20401;-84
2023/12/02 10:15:58;;;;;;;2.25;1.90;;;;;;;;;;5059809;28;20426;-83
2023/12/02 10:18:29;;;;;;;2.00;1.80;;;;;;;;;;5059979;28;20390;-84
2023/12/02 10:21:01;;;;;;;1.95;1.85;;;;;;;;;;5059665;28;20380;-83
2023/12/02 10:23:32;;;;;;;2.13;2.03;;;;;;;;;;5059687;28;20377;-83
2023/12/02 10:26:09;;;;;;;2.75;2.50;;;;;;;;;;5059033;28;20427;-84
2023/12/02 10:28:47;;;;;;;2.15;1.98;;;;;;;;;;5059068;28;20453;-84
2023/12/02 10:31:22;;;;;;;2.50;2.30;;;;;;;;;;5059170;28;20446;-83
2023/12/02 10:33:57;;;;;;;2.28;1.90;;;;;;;;;;5059537;28;20416;-83
2023/12/02 10:36:26;;;;;;;2.17;2.00;;;;;;;;;;5058739;28;20435;-83
2023/12/02 10:38:56;;;;;;;2.00;1.90;;;;;;;;;;5062942;28;20500;-83
2023/12/02 10:41:35;;;;;;;2.03;1.92;;;;;;;;;;5062796;28;20381;-83
2023/12/02 10:44:04;;;;;;;2.72;2.00;;;;;;;;;;5063353;28;20385;-83
2023/12/02 10:46:32;;;;;;;2.50;2.30;;;;;;;;;;5062996;28;20490;-83
2023/12/02 10:48:59;;;;;;;2.70;2.25;;;;;;;;;;5068732;28;20378;-83
2023/12/02 10:51:26;;;;;;;2.90;2.70;;;;;;;;;;5083185;28;20383;-83
2023/12/02 10:53:55;;;;;;;3.88;3.20;;;;;;;;;;5083349;28;20509;-83
2023/12/02 10:56:23;;;;;;;4.05;3.55;;;;;;;;;;5082452;28;20430;-83
2023/12/02 10:58:50;;;;;;;6.00;5.50;;;;;;;;;;5083364;28;21027;-83
2023/12/02 11:01:27;;;;;;;5.78;5.32;;;;;;;;;;5083132;28;20873;-83
2023/12/02 11:04:03;;;;;;;7.15;6.65;;;;;;;;;;5082304;28;20443;-83
2023/12/02 11:06:37;;;;;;;5.25;4.85;;;;;;;;;;5082708;28;20945;-83
2023/12/02 11:09:12;;;;;;;4.20;3.80;;;;;;;;;;5082754;28;20394;-83
2023/12/02 11:11:53;;;;;;;4.50;4.10;;;;;;;;;;5082446;28;20434;-83
2023/12/02 11:14:20;;;;;;;4.15;3.85;;;;;;;;;;5082068;28;20382;-84
2023/12/02 11:17:06;;;;;;;4.38;4.00;;;;;;;;;;5082335;28;20376;-84
2023/12/02 11:19:52;;;;;;;5.40;4.90;;;;;;;;;;5081984;28;20426;-83
2023/12/02 11:22:35;;;;;;;5.85;5.30;;;;;;;;;;5064538;28;20388;-83
2023/12/02 11:25:02;;;;;;;5.68;5.18;;;;;;;;;;5082400;28;20391;-84
2023/12/02 11:27:45;;;;;;;5.05;4.55;;;;;;;;;;5082362;28;20784;-83
2023/12/02 11:30:17;;;;;;;5.55;5.05;;;;;;;;;;5082336;28;20444;-84
2023/12/02 11:32:59;;;;;;;5.60;5.10;;;;;;;;;;5082016;28;20982;-83
2023/12/02 11:35:48;;;;;;;5.72;5.20;;;;;;;;;;5081939;28;20447;-83
2023/12/02 11:38:18;;;;;;;5.70;5.20;;;;;;;;;;5035673;28;20436;-84
2023/12/02 11:41:05;;;;;;;6.03;5.53;;;;;;;;;;5081845;28;20396;-84
2023/12/02 11:43:31;;;;;;;6.05;5.28;;;;;;;;;;5081167;28;20463;-83
2023/12/02 11:45:58;;;;;;;6.30;5.73;;;;;;;;;;5080817;28;20395;-83
2023/12/02 11:48:39;;;;;;;6.32;5.72;;;;;;;;;;5082010;28;20876;-83
2023/12/02 11:51:11;;;;;;;5.63;5.13;;;;;;;;;;5086984;28;20794;-84
2023/12/02 11:53:49;;;;;;;5.25;4.85;;;;;;;;;;5101104;28;20449;-83
2023/12/02 11:56:20;;;;;;;4.97;4.45;;;;;;;;;;5102158;28;20441;-84
2023/12/02 11:58:46;;;;;;;5.47;4.97;;;;;;;;;;5101247;28;20430;-83
2023/12/02 12:01:24;;;;;;;5.78;5.28;;;;;;;;;;5101886;28;20381;-84
2023/12/02 12:04:00;;;;;;;6.68;6.03;;;;;;;;;;5101122;28;20831;-83
2023/12/02 12:06:41;;;;;;;6.57;5.97;;;;;;;;;;5101331;28;20437;-83
2023/12/02 12:09:26;;;;;;;6.60;6.00;;;;;;;;;;5088724;28;20837;-81
2023/12/02 12:11:53;;;;;;;6.20;5.70;;;;;;;;;;5080081;28;20429;-83
2023/12/02 12:14:20;;;;;;;6.32;5.82;;;;;;;;;;5080316;28;20380;-83
2023/12/02 12:16:49;;;;;;;7.22;6.65;;;;;;;;;;5080445;28;20391;-83
2023/12/02 12:19:15;;;;;;;6.53;6.03;;;;;;;;;;5080723;28;20817;-82
2023/12/02 12:21:42;;;;;;;6.75;6.20;;;;;;;;;;5080410;28;20371;-82
2023/12/02 12:24:08;;;;;;;6.85;6.32;;;;;;;;;;5080198;28;20432;-82
2023/12/02 12:26:34;;;;;;;6.53;6.03;;;;;;;;;;5080537;28;20380;-82
2023/12/02 12:29:01;;;;;;;6.07;5.57;;;;;;;;;;5080128;28;20379;-83
2023/12/02 12:31:30;;;;;;;6.50;5.90;;;;;;;;;;5080519;28;20787;-82
2023/12/02 12:33:58;;;;;;;5.45;5.05;;;;;;;;;;5079879;28;20411;-82
2023/12/02 12:36:30;;;;;;;7.55;6.95;;;;;;;;;;5080126;28;20379;-82
2023/12/02 12:38:57;;;;;;;6.53;5.93;;;;;;;;;;5080467;28;20380;-82
2023/12/02 12:41:29;;;;;;;7.17;6.57;;;;;;;;;;5079666;28;20376;-82
2023/12/02 12:43:57;;;;;;;7.32;6.63;;;;;;;;;;5080001;28;20409;-82
2023/12/02 12:46:28;;;;;;;7.70;7.00;;;;;;;;;;5079958;28;20817;-82
2023/12/02 12:48:54;;;;;;;7.55;6.85;;;;;;;;;;5079897;28;20392;-82
2023/12/02 12:51:21;;;;;;;8.63;7.90;;;;;;;;;;5081821;28;20472;-82
2023/12/02 12:53:58;;;;;;;7.47;6.78;;;;;;;;;;5099922;28;20410;-82
2023/12/02 12:56:41;;;;;;;7.43;6.72;;;;;;;;;;5100002;28;20469;-82
2023/12/02 12:59:17;;;;;;;6.45;5.95;;;;;;;;;;5099894;28;20389;-82
2023/12/02 13:01:49;;;;;;;6.22;5.72;;;;;;;;;;5099113;28;20472;-82
2023/12/02 13:04:22;;;;;;;5.95;5.50;;;;;;;;;;5083618;28;20465;-82
2023/12/02 13:06:48;;;;;;;7.50;6.75;;;;;;;;;;5076289;28;20426;-82
2023/12/02 13:09:17;;;;;;;6.53;5.93;;;;;;;;;;5070438;28;20466;-82
2023/12/02 13:12:02;;;;;;;6.78;6.18;;;;;;;;;;5079478;28;20381;-82
2023/12/02 13:14:33;;;;;;;6.35;5.85;;;;;;;;;;5079731;28;20364;-82
2023/12/02 13:17:00;;;;;;;5.90;5.40;;;;;;;;;;5061689;28;20439;-82
2023/12/02 13:19:29;;;;;;;6.20;5.70;;;;;;;;;;5079751;28;20437;-82
2023/12/02 13:21:57;;;;;;;6.13;5.63;;;;;;;;;;5079121;28;20384;-82
2023/12/02 13:24:24;;;;;;;6.22;5.72;;;;;;;;;;5079303;28;20419;-82
2023/12/02 13:26:50;;;;;;;7.32;6.63;;;;;;;;;;5078918;28;20387;-81
2023/12/02 13:29:19;;;;;;;7.40;6.70;;;;;;;;;;5078893;28;20904;-81
2023/12/02 13:31:46;;;;;;;6.95;6.35;;;;;;;;;;5079353;28;20448;-81
2023/12/02 13:34:35;;;;;;;6.82;6.25;;;;;;;;;;5079783;28;20804;-81
2023/12/02 13:37:01;;;;;;;6.78;6.18;;;;;;;;;;5066260;28;20452;-81
2023/12/02 13:39:28;;;;;;;6.82;6.22;;;;;;;;;;5078886;28;20467;-81
2023/12/02 13:41:55;;;;;;;7.03;6.43;;;;;;;;;;5079065;28;20829;-81
2023/12/02 13:44:22;;;;;;;6.32;5.82;;;;;;;;;;5079322;28;20411;-81
2023/12/02 13:46:48;;;;;;;5.90;5.40;;;;;;;;;;5078417;28;20742;-81
2023/12/02 13:49:24;;;;;;;5.70;5.20;;;;;;;;;;5078993;28;20400;-81
2023/12/02 13:52:09;;;;;;;6.15;5.65;;;;;;;;;;5078641;28;20911;-81
2023/12/02 13:54:43;;;;;;;5.88;5.38;;;;;;;;;;5058270;28;20441;-81
2023/12/02 13:57:27;;;;;;;7.45;6.75;;;;;;;;;;5057689;28;20983;-81
2023/12/02 13:59:58;;;;;;;6.05;5.55;;;;;;;;;;5061072;28;20416;-81
2023/12/02 14:02:40;;;;;;;7.07;6.47;;;;;;;;;;5078282;28;20391;-81
2023/12/02 14:05:07;;;;;;;6.53;5.93;;;;;;;;;;5079053;28;20419;-81
2023/12/02 14:07:53;;;;;;;6.68;6.10;;;;;;;;;;5077947;28;20394;-81
2023/12/02 14:10:20;;;;;;;7.82;6.40;;;;;;;;;;5077615;28;20430;-81
2023/12/02 14:13:07;;;;;;;7.13;6.50;;;;;;;;;;5081797;28;20399;-81
2023/12/02 14:16:03;;;;;;;7.57;6.97;;;;;;;;;;5082854;28;20468;-81
2023/12/02 14:18:37;;;;;;;9.10;8.30;;;;;;;;;;5060763;28;20894;-81
2023/12/02 14:21:13;;;;;;;8.30;7.55;;;;;;;;;;5064819;28;20549;-81
2023/12/02 14:23:39;;;;;;;8.60;7.80;;;;;;;;;;5061888;28;20437;-81
2023/12/02 14:26:19;;;;;;;8.60;7.90;;;;;;;;;;5061924;28;20469;-81
2023/12/02 14:29:04;;;;;;;9.48;8.68;;;;;;;;;;5061651;28;20422;-81
2023/12/02 14:31:32;;;;;;;10.63;9.63;;;;;;;;;;5061744;28;20456;-81
2023/12/02 14:34:17;;;;;;;9.82;8.98;;;;;;;;;;5061628;28;20413;-82
2023/12/02 14:37:03;;;;;;;14.77;12.80;;;;;;;;;;5061976;28;20418;-82
2023/12/02 14:39:29;;;;;;;8.50;7.78;;;;;;;;;;5061230;28;20463;-81
2023/12/02 14:41:58;;;;;;;10.30;9.40;;;;;;;;;;5061408;28;20381;-81
2023/12/02 14:44:30;;;;;;;8.68;7.97;;;;;;;;;;5061573;28;20382;-82
2023/12/02 14:47:04;;;;;;;8.13;7.43;;;;;;;;;;5061266;28;20442;-81
2023/12/02 14:49:31;;;;;;;8.50;7.80;;;;;;;;;;5061294;28;20393;-81
2023/12/02 14:51:59;;;;;;;8.27;7.57;;;;;;;;;;5061679;28;20755;-81